sensor_id;sensor_type;location;lat;lon;timestamp;temperature;humidity
23540;DHT22;11947;50.810;4.394;2023-05-10T00:01:21;13.60;99.90
23540;DHT22;11947;50.810;4.394;2023-05-10T00:03:47;13.50;99.90
23540;DHT22;11947;50.810;4.394;2023-05-10T00:06:13;13.50;99.90
23540;DHT22;11947;50.810;4.394;2023-05-10T00:08:38;13.50;99.90
23540;DHT22;11947;50.810;4.394;2023-05-10T00:11:04;13.50;99.90
23540;DHT22;11947;50.810;4.394;2023-05-10T00:13:29;13.50;99.90
23540;DHT22;11947;50.810;4.394;2023-05-10T00:15:55;13.60;99.90
23540;DHT22;11947;50.810;4.394;2023-05-10T00:18:21;13.50;99.90
23540;DHT22;11947;50.810;4.394;2023-05-10T00:20:46;13.50;99.90
23540;DHT22;11947;50.810;4.394;2023-05-10T00:23:12;13.50;99.90
23540;DHT22;11947;50.810;4.394;2023-05-10T00:25:38;13.40;99.90
23540;DHT22;11947;50.810;4.394;2023-05-10T00:28:03;13.40;99.90
23540;DHT22;11947;50.810;4.394;2023-05-10T00:30:29;13.50;99.90
23540;DHT22;11947;50.810;4.394;2023-05-10T00:32:55;13.50;99.90
23540;DHT22;11947;50.810;4.394;2023-05-10T00:35:20;13.60;99.90
23540;DHT22;11947;50.810;4.394;2023-05-10T00:37:47;13.60;99.90
23540;DHT22;11947;50.810;4.394;2023-05-10T00:40:12;13.60;99.90
23540;DHT22;11947;50.810;4.394;2023-05-10T00:42:38;13.60;99.90
23540;DHT22;11947;50.810;4.394;2023-05-10T00:45:04;13.50;99.90
23540;DHT22;11947;50.810;4.394;2023-05-10T00:47:31;13.40;99.90
23540;DHT22;11947;50.810;4.394;2023-05-10T00:49:57;13.40;99.90
23540;DHT22;11947;50.810;4.394;2023-05-10T00:52:23;13.50;99.90
23540;DHT22;11947;50.810;4.394;2023-05-10T00:54:51;13.50;99.90
23540;DHT22;11947;50.810;4.394;2023-05-10T00:57:17;13.60;99.90
23540;DHT22;11947;50.810;4.394;2023-05-10T00:59:43;13.50;99.90
23540;DHT22;11947;50.810;4.394;2023-05-10T01:02:09;13.50;99.90
23540;DHT22;11947;50.810;4.394;2023-05-10T01:04:35;13.60;99.90
23540;DHT22;11947;50.810;4.394;2023-05-10T01:07:00;13.50;99.90
23540;DHT22;11947;50.810;4.394;2023-05-10T01:09:27;13.50;99.90
23540;DHT22;11947;50.810;4.394;2023-05-10T01:11:54;13.50;99.90
23540;DHT22;11947;50.810;4.394;2023-05-10T01:14:20;13.50;99.90
23540;DHT22;11947;50.810;4.394;2023-05-10T01:16:49;13.50;99.90
23540;DHT22;11947;50.810;4.394;2023-05-10T01:19:26;13.50;99.90
23540;DHT22;11947;50.810;4.394;2023-05-10T01:25:02;13.50;99.90
23540;DHT22;11947;50.810;4.394;2023-05-10T01:38:32;13.60;99.90
23540;DHT22;11947;50.810;4.394;2023-05-10T01:43:35;13.40;99.90
23540;DHT22;11947;50.810;4.394;2023-05-10T01:46:14;13.40;99.90
23540;DHT22;11947;50.810;4.394;2023-05-10T01:48:47;13.40;99.90
23540;DHT22;11947;50.810;4.394;2023-05-10T01:51:19;13.50;99.90
23540;DHT22;11947;50.810;4.394;2023-05-10T01:53:48;13.60;99.90
23540;DHT22;11947;50.810;4.394;2023-05-10T01:56:14;13.50;99.90
23540;DHT22;11947;50.810;4.394;2023-05-10T01:58:43;13.60;99.90
23540;DHT22;11947;50.810;4.394;2023-05-10T02:01:12;13.70;99.90
23540;DHT22;11947;50.810;4.394;2023-05-10T02:03:40;13.60;99.90
23540;DHT22;11947;50.810;4.394;2023-05-10T02:06:07;13.50;99.90
23540;DHT22;11947;50.810;4.394;2023-05-10T02:08:35;13.50;99.90
23540;DHT22;11947;50.810;4.394;2023-05-10T02:11:03;13.50;99.90
23540;DHT22;11947;50.810;4.394;2023-05-10T02:13:31;13.40;99.90
23540;DHT22;11947;50.810;4.394;2023-05-10T02:15:58;13.40;99.90
23540;DHT22;11947;50.810;4.394;2023-05-10T02:18:25;13.50;99.90
23540;DHT22;11947;50.810;4.394;2023-05-10T02:20:52;13.40;99.90
23540;DHT22;11947;50.810;4.394;2023-05-10T02:23:20;13.40;99.90
23540;DHT22;11947;50.810;4.394;2023-05-10T02:25:48;13.50;99.90
23540;DHT22;11947;50.810;4.394;2023-05-10T02:28:15;13.50;99.90
23540;DHT22;11947;50.810;4.394;2023-05-10T02:30:43;13.50;99.90
23540;DHT22;11947;50.810;4.394;2023-05-10T02:33:08;13.50;99.90
23540;DHT22;11947;50.810;4.394;2023-05-10T02:35:35;13.50;99.90
23540;DHT22;11947;50.810;4.394;2023-05-10T02:38:02;13.50;99.90
23540;DHT22;11947;50.810;4.394;2023-05-10T02:40:30;13.50;99.90
23540;DHT22;11947;50.810;4.394;2023-05-10T02:42:57;13.60;99.90
23540;DHT22;11947;50.810;4.394;2023-05-10T02:45:28;13.50;99.90
23540;DHT22;11947;50.810;4.394;2023-05-10T02:47:55;13.50;99.90
23540;DHT22;11947;50.810;4.394;2023-05-10T02:50:21;13.50;99.90
23540;DHT22;11947;50.810;4.394;2023-05-10T02:52:50;13.50;99.90
23540;DHT22;11947;50.810;4.394;2023-05-10T02:55:21;13.40;99.90
23540;DHT22;11947;50.810;4.394;2023-05-10T02:57:59;13.50;99.90
23540;DHT22;11947;50.810;4.394;2023-05-10T03:00:25;13.40;99.90
23540;DHT22;11947;50.810;4.394;2023-05-10T03:02:52;13.40;99.90
23540;DHT22;11947;50.810;4.394;2023-05-10T03:05:18;13.40;99.90
23540;DHT22;11947;50.810;4.394;2023-05-10T03:07:44;13.30;99.90
23540;DHT22;11947;50.810;4.394;2023-05-10T03:10:10;13.50;99.90
23540;DHT22;11947;50.810;4.394;2023-05-10T03:15:36;13.40;99.90
23540;DHT22;11947;50.810;4.394;2023-05-10T03:18:10;13.40;99.90
23540;DHT22;11947;50.810;4.394;2023-05-10T03:20:59;13.40;99.90
23540;DHT22;11947;50.810;4.394;2023-05-10T03:23:45;13.50;99.90
23540;DHT22;11947;50.810;4.394;2023-05-10T03:26:20;13.50;99.90
23540;DHT22;11947;50.810;4.394;2023-05-10T03:28:49;13.50;99.90
23540;DHT22;11947;50.810;4.394;2023-05-10T03:31:17;13.50;99.90
23540;DHT22;11947;50.810;4.394;2023-05-10T03:33:50;13.50;99.90
23540;DHT22;11947;50.810;4.394;2023-05-10T03:36:16;13.40;99.90
23540;DHT22;11947;50.810;4.394;2023-05-10T03:38:42;13.40;99.90
23540;DHT22;11947;50.810;4.394;2023-05-10T03:41:08;13.30;99.90
23540;DHT22;11947;50.810;4.394;2023-05-10T03:43:33;13.40;99.90
23540;DHT22;11947;50.810;4.394;2023-05-10T03:46:02;13.40;99.90
23540;DHT22;11947;50.810;4.394;2023-05-10T03:48:27;13.40;99.90
23540;DHT22;11947;50.810;4.394;2023-05-10T03:50:53;13.50;99.90
23540;DHT22;11947;50.810;4.394;2023-05-10T03:53:19;13.40;99.90
23540;DHT22;11947;50.810;4.394;2023-05-10T03:55:44;13.40;99.90
23540;DHT22;11947;50.810;4.394;2023-05-10T03:58:13;13.40;99.90
23540;DHT22;11947;50.810;4.394;2023-05-10T04:00:39;13.40;99.90
23540;DHT22;11947;50.810;4.394;2023-05-10T04:03:09;13.40;99.90
23540;DHT22;11947;50.810;4.394;2023-05-10T04:05:35;13.40;99.90
23540;DHT22;11947;50.810;4.394;2023-05-10T04:08:01;13.30;99.90
23540;DHT22;11947;50.810;4.394;2023-05-10T04:10:27;13.40;99.90
23540;DHT22;11947;50.810;4.394;2023-05-10T04:12:53;13.40;99.90
23540;DHT22;11947;50.810;4.394;2023-05-10T04:15:19;13.40;99.90
23540;DHT22;11947;50.810;4.394;2023-05-10T04:17:44;13.40;99.90
23540;DHT22;11947;50.810;4.394;2023-05-10T04:20:11;13.50;99.90
23540;DHT22;11947;50.810;4.394;2023-05-10T04:22:36;13.50;99.90
23540;DHT22;11947;50.810;4.394;2023-05-10T04:25:02;13.50;99.90
23540;DHT22;11947;50.810;4.394;2023-05-10T04:27:28;13.50;99.90
23540;DHT22;11947;50.810;4.394;2023-05-10T04:29:54;13.50;99.90
23540;DHT22;11947;50.810;4.394;2023-05-10T04:32:19;13.50;99.90
23540;DHT22;11947;50.810;4.394;2023-05-10T04:34:45;13.50;99.90
23540;DHT22;11947;50.810;4.394;2023-05-10T04:37:11;13.50;99.90
23540;DHT22;11947;50.810;4.394;2023-05-10T04:39:37;13.60;99.90
23540;DHT22;11947;50.810;4.394;2023-05-10T04:42:03;13.60;99.90
23540;DHT22;11947;50.810;4.394;2023-05-10T04:44:29;13.60;99.90
23540;DHT22;11947;50.810;4.394;2023-05-10T04:46:55;13.60;99.90
23540;DHT22;11947;50.810;4.394;2023-05-10T04:49:20;13.60;99.90
23540;DHT22;11947;50.810;4.394;2023-05-10T04:51:47;13.60;99.90
23540;DHT22;11947;50.810;4.394;2023-05-10T04:54:12;13.60;99.90
23540;DHT22;11947;50.810;4.394;2023-05-10T04:56:38;13.60;99.90
23540;DHT22;11947;50.810;4.394;2023-05-10T04:59:03;13.50;99.90
23540;DHT22;11947;50.810;4.394;2023-05-10T05:01:29;13.50;99.90
23540;DHT22;11947;50.810;4.394;2023-05-10T05:03:55;13.50;99.90
23540;DHT22;11947;50.810;4.394;2023-05-10T05:06:20;13.50;99.90
23540;DHT22;11947;50.810;4.394;2023-05-10T05:08:46;13.50;99.90
23540;DHT22;11947;50.810;4.394;2023-05-10T05:11:12;13.60;99.90
23540;DHT22;11947;50.810;4.394;2023-05-10T05:13:37;13.50;99.90
23540;DHT22;11947;50.810;4.394;2023-05-10T05:16:04;13.40;99.90
23540;DHT22;11947;50.810;4.394;2023-05-10T05:18:30;13.40;99.90
23540;DHT22;11947;50.810;4.394;2023-05-10T05:20:56;13.40;99.90
23540;DHT22;11947;50.810;4.394;2023-05-10T05:23:21;13.40;99.90
23540;DHT22;11947;50.810;4.394;2023-05-10T05:25:52;13.40;99.90
23540;DHT22;11947;50.810;4.394;2023-05-10T05:28:22;13.20;99.90
23540;DHT22;11947;50.810;4.394;2023-05-10T05:30:48;13.20;99.90
23540;DHT22;11947;50.810;4.394;2023-05-10T05:33:14;13.30;99.90
23540;DHT22;11947;50.810;4.394;2023-05-10T05:35:41;13.30;99.90
23540;DHT22;11947;50.810;4.394;2023-05-10T05:38:08;13.20;99.90
23540;DHT22;11947;50.810;4.394;2023-05-10T05:40:33;13.20;99.90
23540;DHT22;11947;50.810;4.394;2023-05-10T05:42:59;13.10;99.90
23540;DHT22;11947;50.810;4.394;2023-05-10T05:45:25;13.20;99.90
23540;DHT22;11947;50.810;4.394;2023-05-10T05:47:50;13.20;99.90
23540;DHT22;11947;50.810;4.394;2023-05-10T05:50:16;13.20;99.90
23540;DHT22;11947;50.810;4.394;2023-05-10T05:52:42;13.20;99.90
23540;DHT22;11947;50.810;4.394;2023-05-10T05:55:07;13.10;99.90
23540;DHT22;11947;50.810;4.394;2023-05-10T05:57:33;13.10;99.90
23540;DHT22;11947;50.810;4.394;2023-05-10T05:59:59;13.10;99.90
23540;DHT22;11947;50.810;4.394;2023-05-10T06:02:24;13.00;99.90
23540;DHT22;11947;50.810;4.394;2023-05-10T06:04:50;13.00;99.90
23540;DHT22;11947;50.810;4.394;2023-05-10T06:07:16;13.10;99.90
23540;DHT22;11947;50.810;4.394;2023-05-10T06:09:41;13.10;99.90
23540;DHT22;11947;50.810;4.394;2023-05-10T06:12:07;13.10;99.90
23540;DHT22;11947;50.810;4.394;2023-05-10T06:14:33;13.00;99.90
23540;DHT22;11947;50.810;4.394;2023-05-10T06:16:58;12.90;99.90
23540;DHT22;11947;50.810;4.394;2023-05-10T06:19:25;12.80;99.90
23540;DHT22;11947;50.810;4.394;2023-05-10T06:21:51;12.60;99.90
23540;DHT22;11947;50.810;4.394;2023-05-10T06:24:17;12.60;99.90
23540;DHT22;11947;50.810;4.394;2023-05-10T06:26:43;12.60;99.90
23540;DHT22;11947;50.810;4.394;2023-05-10T06:29:08;12.80;99.90
23540;DHT22;11947;50.810;4.394;2023-05-10T06:31:34;12.90;99.90
23540;DHT22;11947;50.810;4.394;2023-05-10T06:34:00;12.90;99.90
23540;DHT22;11947;50.810;4.394;2023-05-10T06:36:25;12.90;99.90
23540;DHT22;11947;50.810;4.394;2023-05-10T06:38:52;13.00;99.90
23540;DHT22;11947;50.810;4.394;2023-05-10T06:41:18;13.10;99.90
23540;DHT22;11947;50.810;4.394;2023-05-10T06:43:43;13.10;99.90
23540;DHT22;11947;50.810;4.394;2023-05-10T06:46:09;13.10;99.90
23540;DHT22;11947;50.810;4.394;2023-05-10T06:48:35;13.10;99.90
23540;DHT22;11947;50.810;4.394;2023-05-10T06:51:01;13.10;99.90
23540;DHT22;11947;50.810;4.394;2023-05-10T06:53:26;13.10;99.90
23540;DHT22;11947;50.810;4.394;2023-05-10T06:55:52;13.00;99.90
23540;DHT22;11947;50.810;4.394;2023-05-10T06:58:18;13.00;99.90
23540;DHT22;11947;50.810;4.394;2023-05-10T07:00:44;13.10;99.90
23540;DHT22;11947;50.810;4.394;2023-05-10T07:03:10;13.10;99.90
23540;DHT22;11947;50.810;4.394;2023-05-10T07:05:36;13.10;99.90
23540;DHT22;11947;50.810;4.394;2023-05-10T07:08:02;13.10;99.90
23540;DHT22;11947;50.810;4.394;2023-05-10T07:10:27;13.10;99.90
23540;DHT22;11947;50.810;4.394;2023-05-10T07:12:53;13.10;99.90
23540;DHT22;11947;50.810;4.394;2023-05-10T07:15:19;13.00;99.90
23540;DHT22;11947;50.810;4.394;2023-05-10T07:17:44;13.00;99.90
23540;DHT22;11947;50.810;4.394;2023-05-10T07:20:11;13.00;99.90
23540;DHT22;11947;50.810;4.394;2023-05-10T07:22:36;12.90;99.90
23540;DHT22;11947;50.810;4.394;2023-05-10T07:25:02;13.00;99.90
23540;DHT22;11947;50.810;4.394;2023-05-10T07:27:28;13.00;99.90
23540;DHT22;11947;50.810;4.394;2023-05-10T07:29:53;13.10;99.90
23540;DHT22;11947;50.810;4.394;2023-05-10T07:32:20;13.10;99.90
23540;DHT22;11947;50.810;4.394;2023-05-10T07:34:46;13.00;99.90
23540;DHT22;11947;50.810;4.394;2023-05-10T07:37:11;13.00;99.90
23540;DHT22;11947;50.810;4.394;2023-05-10T07:39:37;13.00;99.90
23540;DHT22;11947;50.810;4.394;2023-05-10T07:42:03;13.00;99.90
23540;DHT22;11947;50.810;4.394;2023-05-10T07:44:28;13.10;99.90
23540;DHT22;11947;50.810;4.394;2023-05-10T07:46:54;13.10;99.90
23540;DHT22;11947;50.810;4.394;2023-05-10T07:49:21;13.00;99.90
23540;DHT22;11947;50.810;4.394;2023-05-10T07:51:49;13.00;99.90
23540;DHT22;11947;50.810;4.394;2023-05-10T07:54:15;13.10;99.90
23540;DHT22;11947;50.810;4.394;2023-05-10T07:56:41;13.00;99.90
23540;DHT22;11947;50.810;4.394;2023-05-10T07:59:15;13.00;99.90
23540;DHT22;11947;50.810;4.394;2023-05-10T08:01:41;13.10;99.90
23540;DHT22;11947;50.810;4.394;2023-05-10T08:04:07;13.10;99.90
23540;DHT22;11947;50.810;4.394;2023-05-10T08:06:34;13.10;99.90
23540;DHT22;11947;50.810;4.394;2023-05-10T08:09:00;13.20;99.90
23540;DHT22;11947;50.810;4.394;2023-05-10T08:11:25;13.30;99.90
23540;DHT22;11947;50.810;4.394;2023-05-10T08:13:53;13.40;99.90
23540;DHT22;11947;50.810;4.394;2023-05-10T08:16:19;13.40;99.90
23540;DHT22;11947;50.810;4.394;2023-05-10T08:18:45;13.60;99.90
23540;DHT22;11947;50.810;4.394;2023-05-10T08:21:12;13.60;99.90
23540;DHT22;11947;50.810;4.394;2023-05-10T08:23:38;13.70;99.90
23540;DHT22;11947;50.810;4.394;2023-05-10T08:26:04;13.80;99.90
23540;DHT22;11947;50.810;4.394;2023-05-10T08:28:30;13.80;99.90
23540;DHT22;11947;50.810;4.394;2023-05-10T08:30:56;13.80;99.90
23540;DHT22;11947;50.810;4.394;2023-05-10T08:33:21;13.90;99.90
23540;DHT22;11947;50.810;4.394;2023-05-10T08:35:47;14.00;99.90
23540;DHT22;11947;50.810;4.394;2023-05-10T08:38:13;14.10;99.90
23540;DHT22;11947;50.810;4.394;2023-05-10T08:40:41;13.90;99.90
23540;DHT22;11947;50.810;4.394;2023-05-10T08:43:09;14.00;99.90
23540;DHT22;11947;50.810;4.394;2023-05-10T08:45:40;14.00;99.90
23540;DHT22;11947;50.810;4.394;2023-05-10T08:48:07;14.00;99.90
23540;DHT22;11947;50.810;4.394;2023-05-10T08:50:37;13.90;99.90
23540;DHT22;11947;50.810;4.394;2023-05-10T08:53:10;13.90;99.90
23540;DHT22;11947;50.810;4.394;2023-05-10T08:55:36;13.80;99.90
23540;DHT22;11947;50.810;4.394;2023-05-10T08:58:04;13.80;99.90
23540;DHT22;11947;50.810;4.394;2023-05-10T09:00:31;13.90;99.90
23540;DHT22;11947;50.810;4.394;2023-05-10T09:03:00;13.90;99.90
23540;DHT22;11947;50.810;4.394;2023-05-10T09:05:27;13.80;99.90
23540;DHT22;11947;50.810;4.394;2023-05-10T09:07:52;13.80;99.90
23540;DHT22;11947;50.810;4.394;2023-05-10T09:10:19;13.80;99.90
23540;DHT22;11947;50.810;4.394;2023-05-10T09:12:45;13.80;99.90
23540;DHT22;11947;50.810;4.394;2023-05-10T09:15:15;13.90;99.90
23540;DHT22;11947;50.810;4.394;2023-05-10T09:17:41;13.80;99.90
23540;DHT22;11947;50.810;4.394;2023-05-10T09:20:07;13.80;99.90
23540;DHT22;11947;50.810;4.394;2023-05-10T09:22:33;13.70;99.90
23540;DHT22;11947;50.810;4.394;2023-05-10T09:25:10;13.70;99.90
23540;DHT22;11947;50.810;4.394;2023-05-10T09:27:38;13.90;99.90
23540;DHT22;11947;50.810;4.394;2023-05-10T09:30:05;14.00;99.90
23540;DHT22;11947;50.810;4.394;2023-05-10T09:32:45;14.10;99.90
23540;DHT22;11947;50.810;4.394;2023-05-10T09:35:13;14.00;99.90
23540;DHT22;11947;50.810;4.394;2023-05-10T09:37:40;14.00;99.90
23540;DHT22;11947;50.810;4.394;2023-05-10T09:40:07;14.00;99.90
23540;DHT22;11947;50.810;4.394;2023-05-10T09:42:36;14.10;99.90
23540;DHT22;11947;50.810;4.394;2023-05-10T09:45:05;14.00;99.90
23540;DHT22;11947;50.810;4.394;2023-05-10T09:47:33;14.10;99.90
23540;DHT22;11947;50.810;4.394;2023-05-10T09:49:59;14.10;99.90
23540;DHT22;11947;50.810;4.394;2023-05-10T09:55:13;13.90;99.90
23540;DHT22;11947;50.810;4.394;2023-05-10T09:57:39;13.90;99.90
23540;DHT22;11947;50.810;4.394;2023-05-10T10:00:05;13.80;99.90
23540;DHT22;11947;50.810;4.394;2023-05-10T10:02:31;13.80;99.90
23540;DHT22;11947;50.810;4.394;2023-05-10T10:04:59;13.80;99.90
23540;DHT22;11947;50.810;4.394;2023-05-10T10:07:26;13.80;99.90
23540;DHT22;11947;50.810;4.394;2023-05-10T10:09:53;13.80;99.90
23540;DHT22;11947;50.810;4.394;2023-05-10T10:12:20;13.80;99.90
23540;DHT22;11947;50.810;4.394;2023-05-10T10:14:48;14.00;99.90
23540;DHT22;11947;50.810;4.394;2023-05-10T10:17:16;14.00;99.90
23540;DHT22;11947;50.810;4.394;2023-05-10T10:19:42;14.10;99.90
23540;DHT22;11947;50.810;4.394;2023-05-10T10:22:08;14.20;99.90
23540;DHT22;11947;50.810;4.394;2023-05-10T10:24:37;14.20;99.90
23540;DHT22;11947;50.810;4.394;2023-05-10T10:27:26;14.10;99.90
23540;DHT22;11947;50.810;4.394;2023-05-10T10:35:20;14.10;99.90
23540;DHT22;11947;50.810;4.394;2023-05-10T10:37:47;14.20;99.90
23540;DHT22;11947;50.810;4.394;2023-05-10T10:42:51;14.70;99.90
23540;DHT22;11947;50.810;4.394;2023-05-10T10:45:17;14.60;99.90
23540;DHT22;11947;50.810;4.394;2023-05-10T10:47:44;14.60;99.90
23540;DHT22;11947;50.810;4.394;2023-05-10T10:50:10;14.70;99.90
23540;DHT22;11947;50.810;4.394;2023-05-10T10:52:45;14.80;99.90
23540;DHT22;11947;50.810;4.394;2023-05-10T10:55:18;14.80;99.90
23540;DHT22;11947;50.810;4.394;2023-05-10T10:57:46;14.90;99.90
23540;DHT22;11947;50.810;4.394;2023-05-10T11:00:27;15.00;99.90
23540;DHT22;11947;50.810;4.394;2023-05-10T11:08:14;15.20;99.90
23540;DHT22;11947;50.810;4.394;2023-05-10T11:10:48;15.30;99.90
23540;DHT22;11947;50.810;4.394;2023-05-10T11:13:14;15.30;99.90
23540;DHT22;11947;50.810;4.394;2023-05-10T11:15:48;15.50;99.90
23540;DHT22;11947;50.810;4.394;2023-05-10T11:18:28;15.80;99.90
23540;DHT22;11947;50.810;4.394;2023-05-10T11:20:59;16.30;99.90
23540;DHT22;11947;50.810;4.394;2023-05-10T11:23:33;16.50;99.90
23540;DHT22;11947;50.810;4.394;2023-05-10T11:26:13;16.70;99.90
23540;DHT22;11947;50.810;4.394;2023-05-10T11:28:43;17.30;99.90
23540;DHT22;11947;50.810;4.394;2023-05-10T11:31:09;17.40;99.90
23540;DHT22;11947;50.810;4.394;2023-05-10T11:33:49;17.40;99.90
23540;DHT22;11947;50.810;4.394;2023-05-10T11:36:17;17.40;99.90
23540;DHT22;11947;50.810;4.394;2023-05-10T11:38:44;17.40;99.90
23540;DHT22;11947;50.810;4.394;2023-05-10T11:41:10;17.30;99.90
23540;DHT22;11947;50.810;4.394;2023-05-10T11:43:40;17.80;99.90
23540;DHT22;11947;50.810;4.394;2023-05-10T11:46:10;18.40;99.90
23540;DHT22;11947;50.810;4.394;2023-05-10T11:48:39;18.50;99.90
23540;DHT22;11947;50.810;4.394;2023-05-10T11:51:06;18.70;99.90
23540;DHT22;11947;50.810;4.394;2023-05-10T11:53:32;18.60;99.90
23540;DHT22;11947;50.810;4.394;2023-05-10T11:56:09;18.50;99.90
23540;DHT22;11947;50.810;4.394;2023-05-10T11:58:35;18.60;99.90
23540;DHT22;11947;50.810;4.394;2023-05-10T12:01:02;18.40;99.90
23540;DHT22;11947;50.810;4.394;2023-05-10T12:03:29;18.20;99.90
23540;DHT22;11947;50.810;4.394;2023-05-10T12:05:56;18.00;99.90
23540;DHT22;11947;50.810;4.394;2023-05-10T12:08:24;17.90;99.90
23540;DHT22;11947;50.810;4.394;2023-05-10T12:10:51;17.70;99.90
23540;DHT22;11947;50.810;4.394;2023-05-10T12:13:19;17.90;99.90
23540;DHT22;11947;50.810;4.394;2023-05-10T12:15:46;18.10;99.90
23540;DHT22;11947;50.810;4.394;2023-05-10T12:18:12;18.30;99.90
23540;DHT22;11947;50.810;4.394;2023-05-10T12:20:39;18.20;99.90
23540;DHT22;11947;50.810;4.394;2023-05-10T12:23:05;18.40;99.90
23540;DHT22;11947;50.810;4.394;2023-05-10T12:25:34;18.40;99.90
23540;DHT22;11947;50.810;4.394;2023-05-10T12:28:03;18.50;99.90
23540;DHT22;11947;50.810;4.394;2023-05-10T12:30:31;18.70;99.90
23540;DHT22;11947;50.810;4.394;2023-05-10T12:33:11;18.80;99.90
23540;DHT22;11947;50.810;4.394;2023-05-10T12:35:47;19.00;99.90
23540;DHT22;11947;50.810;4.394;2023-05-10T12:38:43;19.10;99.90
23540;DHT22;11947;50.810;4.394;2023-05-10T12:41:11;18.80;99.90
23540;DHT22;11947;50.810;4.394;2023-05-10T12:43:37;18.60;99.90
23540;DHT22;11947;50.810;4.394;2023-05-10T12:46:11;18.60;99.90
23540;DHT22;11947;50.810;4.394;2023-05-10T12:48:38;18.50;99.90
23540;DHT22;11947;50.810;4.394;2023-05-10T12:51:05;18.20;99.90
23540;DHT22;11947;50.810;4.394;2023-05-10T12:53:34;18.10;99.90
23540;DHT22;11947;50.810;4.394;2023-05-10T12:55:59;17.80;99.90
23540;DHT22;11947;50.810;4.394;2023-05-10T12:58:25;17.90;99.90
23540;DHT22;11947;50.810;4.394;2023-05-10T13:00:51;18.00;99.90
23540;DHT22;11947;50.810;4.394;2023-05-10T13:03:17;18.00;99.90
23540;DHT22;11947;50.810;4.394;2023-05-10T13:05:43;18.00;99.90
23540;DHT22;11947;50.810;4.394;2023-05-10T13:08:08;18.00;99.90
23540;DHT22;11947;50.810;4.394;2023-05-10T13:10:34;18.00;99.90
23540;DHT22;11947;50.810;4.394;2023-05-10T13:13:00;18.10;99.90
23540;DHT22;11947;50.810;4.394;2023-05-10T13:15:26;18.20;99.90
23540;DHT22;11947;50.810;4.394;2023-05-10T13:17:52;18.30;99.90
23540;DHT22;11947;50.810;4.394;2023-05-10T13:20:18;18.80;99.90
23540;DHT22;11947;50.810;4.394;2023-05-10T13:22:44;19.00;99.90
23540;DHT22;11947;50.810;4.394;2023-05-10T13:25:11;19.10;99.90
23540;DHT22;11947;50.810;4.394;2023-05-10T13:27:37;19.30;99.90
23540;DHT22;11947;50.810;4.394;2023-05-10T13:30:03;19.20;99.90
23540;DHT22;11947;50.810;4.394;2023-05-10T13:32:29;19.20;99.90
23540;DHT22;11947;50.810;4.394;2023-05-10T13:34:55;19.20;99.90
23540;DHT22;11947;50.810;4.394;2023-05-10T13:37:21;19.30;99.90
23540;DHT22;11947;50.810;4.394;2023-05-10T13:39:47;19.30;99.90
23540;DHT22;11947;50.810;4.394;2023-05-10T13:42:13;19.40;99.90
23540;DHT22;11947;50.810;4.394;2023-05-10T13:44:39;19.20;99.90
23540;DHT22;11947;50.810;4.394;2023-05-10T13:47:05;19.10;99.90
23540;DHT22;11947;50.810;4.394;2023-05-10T13:49:30;19.20;99.90
23540;DHT22;11947;50.810;4.394;2023-05-10T13:51:56;19.30;99.90
23540;DHT22;11947;50.810;4.394;2023-05-10T13:54:22;20.00;99.90
23540;DHT22;11947;50.810;4.394;2023-05-10T13:56:48;20.60;99.90
23540;DHT22;11947;50.810;4.394;2023-05-10T13:59:14;21.00;99.90
23540;DHT22;11947;50.810;4.394;2023-05-10T14:01:40;21.00;99.90
23540;DHT22;11947;50.810;4.394;2023-05-10T14:04:06;20.80;99.90
23540;DHT22;11947;50.810;4.394;2023-05-10T14:06:35;20.90;99.90
23540;DHT22;11947;50.810;4.394;2023-05-10T14:09:02;20.80;99.90
23540;DHT22;11947;50.810;4.394;2023-05-10T14:11:28;21.00;99.90
23540;DHT22;11947;50.810;4.394;2023-05-10T14:13:53;21.00;99.90
23540;DHT22;11947;50.810;4.394;2023-05-10T14:16:19;20.70;99.90
23540;DHT22;11947;50.810;4.394;2023-05-10T14:18:45;20.60;99.90
23540;DHT22;11947;50.810;4.394;2023-05-10T14:21:11;20.30;99.90
23540;DHT22;11947;50.810;4.394;2023-05-10T14:23:37;19.80;99.90
23540;DHT22;11947;50.810;4.394;2023-05-10T14:26:03;19.40;99.90
23540;DHT22;11947;50.810;4.394;2023-05-10T14:28:28;19.20;99.90
23540;DHT22;11947;50.810;4.394;2023-05-10T14:30:54;18.70;99.90
23540;DHT22;11947;50.810;4.394;2023-05-10T14:33:20;18.60;99.90
23540;DHT22;11947;50.810;4.394;2023-05-10T14:35:46;18.60;99.90
23540;DHT22;11947;50.810;4.394;2023-05-10T14:38:12;18.70;99.90
23540;DHT22;11947;50.810;4.394;2023-05-10T14:40:38;18.80;99.90
23540;DHT22;11947;50.810;4.394;2023-05-10T14:43:04;18.80;99.90
23540;DHT22;11947;50.810;4.394;2023-05-10T14:45:29;18.90;99.90
23540;DHT22;11947;50.810;4.394;2023-05-10T14:47:55;19.00;99.90
23540;DHT22;11947;50.810;4.394;2023-05-10T14:50:21;18.80;99.90
23540;DHT22;11947;50.810;4.394;2023-05-10T14:52:46;18.50;99.90
23540;DHT22;11947;50.810;4.394;2023-05-10T14:55:12;18.20;99.90
23540;DHT22;11947;50.810;4.394;2023-05-10T14:57:38;18.00;99.90
23540;DHT22;11947;50.810;4.394;2023-05-10T15:00:04;18.10;99.90
23540;DHT22;11947;50.810;4.394;2023-05-10T15:02:31;18.10;99.90
23540;DHT22;11947;50.810;4.394;2023-05-10T15:04:57;18.20;99.90
23540;DHT22;11947;50.810;4.394;2023-05-10T15:07:23;18.50;99.90
23540;DHT22;11947;50.810;4.394;2023-05-10T15:09:49;18.70;99.90
23540;DHT22;11947;50.810;4.394;2023-05-10T15:12:15;18.70;99.90
23540;DHT22;11947;50.810;4.394;2023-05-10T15:14:41;18.50;99.90
23540;DHT22;11947;50.810;4.394;2023-05-10T15:17:07;18.40;99.90
23540;DHT22;11947;50.810;4.394;2023-05-10T15:19:33;18.40;99.90
23540;DHT22;11947;50.810;4.394;2023-05-10T15:21:59;18.30;99.90
23540;DHT22;11947;50.810;4.394;2023-05-10T15:24:25;18.20;99.90
23540;DHT22;11947;50.810;4.394;2023-05-10T15:26:50;18.20;99.90
23540;DHT22;11947;50.810;4.394;2023-05-10T15:29:16;18.10;99.90
23540;DHT22;11947;50.810;4.394;2023-05-10T15:31:46;18.10;99.90
23540;DHT22;11947;50.810;4.394;2023-05-10T15:34:13;18.00;99.90
23540;DHT22;11947;50.810;4.394;2023-05-10T15:36:39;18.10;99.90
23540;DHT22;11947;50.810;4.394;2023-05-10T15:39:05;17.90;99.90
23540;DHT22;11947;50.810;4.394;2023-05-10T15:41:30;18.00;99.90
23540;DHT22;11947;50.810;4.394;2023-05-10T15:43:57;18.00;99.90
23540;DHT22;11947;50.810;4.394;2023-05-10T15:46:25;18.00;99.90
23540;DHT22;11947;50.810;4.394;2023-05-10T15:48:51;18.00;99.90
23540;DHT22;11947;50.810;4.394;2023-05-10T15:51:16;18.00;99.90
23540;DHT22;11947;50.810;4.394;2023-05-10T15:53:42;18.10;99.90
23540;DHT22;11947;50.810;4.394;2023-05-10T15:56:07;18.10;99.90
23540;DHT22;11947;50.810;4.394;2023-05-10T15:58:33;18.30;99.90
23540;DHT22;11947;50.810;4.394;2023-05-10T16:00:59;18.50;99.90
23540;DHT22;11947;50.810;4.394;2023-05-10T16:03:25;18.60;99.90
23540;DHT22;11947;50.810;4.394;2023-05-10T16:05:50;18.60;99.90